Peru, Indiana
Current Conditions -  °F | °C
As of 12:58 AM on Tuesday 21 Oct 2014 (Local Time) from KGUS Reporting Station
Overcast Overcast  
Wind Chill: 10°   Ceiling: 5500
Heat Index: 10°   Visibility: 10mi
Dew Point: 10°   Wind: 8mph
Humidity: 100%   Direction: 360°N
Pressure: 29.96"   Gusts: NA
Location:  40.75°N, 86.07°W
Report Text: KGUS 210458Z AUTO 36007KT 10SM FEW040 OVC055 10/10 A2996 RMK AO2 SLP149 T01020102 401920080
Loading
Personal Weather Stations






























Interactive Weather Map
Tropical Storm Tracking
New forecast layout! Learn more

10-Day Weather Forecast

Advertisements
Track Severe Weather on mobile